Time;durP1;ratioP1;P1;durP2;ratioP2;P2;SDS_P1;SDS_P2;PMS_P1;PMS_P2;Temp;Humidity;BMP_temperature;BMP_pressure;BME280_temperature;BME280_humidity;BME280_pressure;Samples;Min_cycle;Max_cycle;Signal;HPM_P1;HPM_P2
2024/02/03 00:02:24;;;;;;;10.60;7.30;;;;;;;21.40;29.51;101691.25;103195;1288;61129;-79
2024/02/03 00:04:50;;;;;;;9.30;7.00;;;;;;;21.40;29.49;101689.45;103076;1288;60850;-79
2024/02/03 00:07:16;;;;;;;9.80;7.40;;;;;;;21.41;29.44;101685.86;102872;1288;60630;-76
2024/02/03 00:09:42;;;;;;;10.90;7.10;;;;;;;21.41;29.45;101688.55;103171;1294;60527;-78
2024/02/03 00:12:08;;;;;;;10.50;7.70;;;;;;;21.41;29.47;101685.88;103210;1288;60512;-77
2024/02/03 00:14:34;;;;;;;9.90;7.40;;;;;;;21.42;29.47;101685.98;103090;1293;72642;-78
2024/02/03 00:17:00;;;;;;;9.50;7.10;;;;;;;21.41;29.60;101682.05;102974;1289;61598;-79
2024/02/03 00:19:26;;;;;;;9.80;7.30;;;;;;;21.41;29.50;101680.80;102996;1291;60583;-79
2024/02/03 00:21:52;;;;;;;9.90;7.70;;;;;;;21.42;29.55;101680.25;102933;1293;60633;-79
2024/02/03 00:24:18;;;;;;;10.70;7.80;;;;;;;21.42;29.47;101681.48;102880;1291;61152;-79
2024/02/03 00:26:43;;;;;;;9.20;7.60;;;;;;;21.42;29.54;101686.83;102948;1290;60556;-79
2024/02/03 00:29:09;;;;;;;10.40;7.00;;;;;;;21.42;29.45;101688.83;103098;1294;60625;-79
2024/02/03 00:31:35;;;;;;;10.50;7.60;;;;;;;21.42;29.49;101685.95;103099;1288;60690;-79
2024/02/03 00:34:00;;;;;;;10.50;7.40;;;;;;;21.43;29.41;101684.84;103174;1288;60981;-79
2024/02/03 00:36:26;;;;;;;10.40;7.80;;;;;;;21.43;29.38;101684.48;102938;1291;60995;-79
2024/02/03 00:38:52;;;;;;;10.60;7.90;;;;;;;21.43;29.38;101682.50;103187;1291;60594;-77
2024/02/03 00:41:18;;;;;;;10.20;7.40;;;;;;;21.43;29.68;101684.27;102844;1288;60664;-79
2024/02/03 00:43:44;;;;;;;10.60;7.60;;;;;;;21.44;29.42;101685.15;103242;1288;61716;-79
2024/02/03 00:46:11;;;;;;;9.50;7.40;;;;;;;21.44;29.62;101681.93;103071;1288;60537;-79
2024/02/03 00:48:37;;;;;;;10.10;7.60;;;;;;;21.45;29.41;101682.05;103162;1288;73689;-79
2024/02/03 00:51:09;;;;;;;10.60;7.70;;;;;;;21.45;29.54;101679.36;103016;1290;60485;-80
2024/02/03 00:53:39;;;;;;;10.60;7.90;;;;;;;21.45;29.37;101675.98;103100;1288;61686;-79
2024/02/03 00:56:05;;;;;;;10.40;7.30;;;;;;;21.45;29.39;101674.36;103160;1288;72407;-78
2024/02/03 00:58:31;;;;;;;10.20;7.60;;;;;;;21.45;29.51;101670.95;103156;1288;60583;-78
2024/02/03 01:00:56;;;;;;;10.20;8.40;;;;;;;21.45;29.43;101665.20;103050;1294;60623;-78
2024/02/03 01:03:24;;;;;;;10.00;7.90;;;;;;;21.46;29.40;101664.81;102891;1291;60592;-77
2024/02/03 01:05:51;;;;;;;9.80;7.40;;;;;;;21.45;29.43;101663.23;102895;1290;60455;-79
2024/02/03 01:08:16;;;;;;;10.10;7.60;;;;;;;21.46;29.38;101663.02;102945;1296;60574;-78
2024/02/03 01:10:42;;;;;;;10.30;7.90;;;;;;;21.46;29.42;101662.11;103095;1291;60626;-78
2024/02/03 01:13:08;;;;;;;11.00;7.60;;;;;;;21.46;29.30;101657.11;102923;1289;61130;-79
2024/02/03 01:15:34;;;;;;;9.80;7.70;;;;;;;21.46;29.45;101654.04;102810;1291;61024;-79
2024/02/03 01:18:00;;;;;;;10.20;7.50;;;;;;;21.47;29.46;101654.89;102871;1291;60589;-79
2024/02/03 01:20:27;;;;;;;10.50;8.20;;;;;;;21.47;29.46;101654.19;102900;1291;60628;-79
2024/02/03 01:22:52;;;;;;;10.90;8.20;;;;;;;21.47;29.37;101655.23;102940;1288;60554;-77
2024/02/03 01:25:18;;;;;;;10.40;7.80;;;;;;;21.47;29.44;101644.48;103129;1288;61049;-77
2024/02/03 01:27:44;;;;;;;10.50;7.90;;;;;;;21.47;29.49;101641.61;103191;1290;60615;-77
2024/02/03 01:30:10;;;;;;;10.50;8.20;;;;;;;21.47;29.45;101638.58;103112;1292;61648;-78
2024/02/03 01:32:35;;;;;;;9.60;7.70;;;;;;;21.48;29.36;101635.15;103138;1288;60582;-78
2024/02/03 01:35:02;;;;;;;10.20;8.20;;;;;;;21.48;29.37;101636.04;103081;1288;60632;-79
2024/02/03 01:37:27;;;;;;;12.20;8.00;;;;;;;21.48;29.41;101639.80;103077;1291;61609;-78
2024/02/03 01:39:53;;;;;;;11.10;7.80;;;;;;;21.48;29.36;101635.33;103093;1289;60763;-79
2024/02/03 01:42:19;;;;;;;10.40;7.60;;;;;;;21.49;29.29;101634.03;102946;1288;74752;-78
2024/02/03 01:44:44;;;;;;;11.60;8.60;;;;;;;21.48;29.31;101632.24;103051;1288;60601;-79
2024/02/03 01:47:10;;;;;;;11.10;8.20;;;;;;;21.48;29.35;101631.17;103199;1288;68393;-78
2024/02/03 01:49:36;;;;;;;11.20;8.70;;;;;;;21.48;29.27;101625.25;102923;1295;60559;-78
2024/02/03 01:52:02;;;;;;;11.20;8.10;;;;;;;21.49;29.28;101619.88;102447;1291;728139;-79
2024/02/03 01:54:28;;;;;;;12.90;9.00;;;;;;;21.49;29.29;101619.13;102961;1289;60535;-78
2024/02/03 01:56:56;;;;;;;11.60;8.20;;;;;;;21.49;29.40;101618.59;102972;1291;60504;-78
2024/02/03 01:59:24;;;;;;;11.80;8.20;;;;;;;21.49;29.34;101611.40;102920;1291;60490;-78
2024/02/03 02:01:50;;;;;;;10.90;8.50;;;;;;;21.49;29.41;101604.79;103061;1288;72485;-78
2024/02/03 02:04:16;;;;;;;10.60;8.70;;;;;;;21.49;29.34;101597.80;102890;1295;60500;-78
2024/02/03 02:06:42;;;;;;;10.60;8.40;;;;;;;21.49;29.26;101594.58;103113;1288;61016;-77
2024/02/03 02:09:08;;;;;;;12.30;8.40;;;;;;;21.49;29.40;101597.80;103172;1292;60524;-77
2024/02/03 02:11:35;;;;;;;10.30;7.90;;;;;;;21.49;29.35;101595.83;103201;1289;60595;-77
2024/02/03 02:14:01;;;;;;;11.70;8.70;;;;;;;21.49;29.33;101592.62;103168;1288;60588;-79
2024/02/03 02:16:29;;;;;;;10.30;8.70;;;;;;;21.48;29.27;101588.74;103027;1294;61051;-78
2024/02/03 02:18:55;;;;;;;10.50;8.50;;;;;;;21.47;29.42;101588.83;103177;1288;60562;-79
2024/02/03 02:21:21;;;;;;;11.20;8.60;;;;;;;21.45;29.29;101595.71;103035;1290;60614;-78
2024/02/03 02:23:47;;;;;;;11.40;8.10;;;;;;;21.44;29.27;101600.27;103149;1292;60497;-79
2024/02/03 02:26:12;;;;;;;11.70;8.40;;;;;;;21.43;29.30;101591.90;103054;1288;61680;-78
2024/02/03 02:28:38;;;;;;;10.60;8.30;;;;;;;21.42;29.36;101591.40;103244;1288;60505;-79
2024/02/03 02:31:04;;;;;;;11.80;8.70;;;;;;;21.42;29.32;101599.29;103131;1288;60671;-77
2024/02/03 02:33:30;;;;;;;12.10;8.90;;;;;;;21.42;29.22;101604.69;103151;1288;73273;-79
2024/02/03 02:35:56;;;;;;;10.40;8.50;;;;;;;21.42;29.31;101609.34;102889;1297;60573;-79
2024/02/03 02:38:21;;;;;;;11.70;8.10;;;;;;;21.42;29.44;101597.70;102886;1288;60541;-79
2024/02/03 02:40:48;;;;;;;10.80;8.20;;;;;;;21.42;29.31;101595.00;103064;1288;60898;-78
2024/02/03 02:43:14;;;;;;;10.80;8.80;;;;;;;21.42;29.20;101592.48;103002;1293;60535;-79
2024/02/03 02:45:40;;;;;;;11.90;8.10;;;;;;;21.43;29.22;101591.91;103211;1293;60592;-78
2024/02/03 02:48:06;;;;;;;11.40;8.30;;;;;;;21.43;29.24;101595.47;103004;1288;60595;-78
2024/02/03 02:50:33;;;;;;;11.40;8.60;;;;;;;21.44;29.22;101588.09;103226;1292;60642;-78
2024/02/03 02:52:59;;;;;;;11.90;9.10;;;;;;;21.45;29.29;101583.59;103204;1288;60584;-78
2024/02/03 02:55:24;;;;;;;12.70;9.00;;;;;;;21.45;29.23;101579.98;103201;1288;61822;-78
2024/02/03 02:57:50;;;;;;;12.40;8.60;;;;;;;21.46;29.34;101574.02;103039;1290;60621;-78
2024/02/03 03:00:16;;;;;;;11.70;9.20;;;;;;;21.46;29.17;101571.69;103057;1289;60636;-78
2024/02/03 03:02:42;;;;;;;12.00;8.90;;;;;;;21.47;29.25;101570.91;103162;1288;61085;-78
2024/02/03 03:05:11;;;;;;;11.20;9.00;;;;;;;21.47;29.21;101574.10;103182;1292;60557;-79
2024/02/03 03:07:40;;;;;;;12.20;9.40;;;;;;;21.48;29.13;101575.15;103066;1288;61630;-79
2024/02/03 03:10:06;;;;;;;10.40;8.70;;;;;;;21.48;29.18;101570.30;103054;1288;61349;-78
2024/02/03 03:12:33;;;;;;;12.70;9.00;;;;;;;21.49;29.27;101569.02;102980;1290;60486;-78
2024/02/03 03:14:59;;;;;;;11.80;8.60;;;;;;;21.49;29.18;101563.61;103097;1288;61301;-78
2024/02/03 03:17:24;;;;;;;10.60;8.80;;;;;;;21.49;29.21;101558.92;103058;1288;60534;-77
2024/02/03 03:19:50;;;;;;;11.10;8.90;;;;;;;21.50;29.36;101561.06;103080;1288;60704;-77
2024/02/03 03:22:17;;;;;;;10.90;9.00;;;;;;;21.50;29.09;101565.15;103095;1288;60508;-79
2024/02/03 03:24:43;;;;;;;10.90;8.80;;;;;;;21.50;29.13;101557.63;103173;1288;61301;-79
2024/02/03 03:27:09;;;;;;;11.10;9.00;;;;;;;21.51;29.19;101545.59;102720;1292;60504;-79
2024/02/03 03:29:35;;;;;;;11.10;9.20;;;;;;;21.51;29.15;101542.52;102826;1294;61177;-78
2024/02/03 03:32:00;;;;;;;12.50;9.00;;;;;;;21.52;29.08;101549.49;102724;1294;60685;-79
2024/02/03 03:34:26;;;;;;;12.20;9.20;;;;;;;21.52;29.24;101542.64;102740;1291;61729;-77
2024/02/03 03:36:52;;;;;;;11.40;8.50;;;;;;;21.52;29.08;101534.92;102725;1291;60631;-78
2024/02/03 03:39:17;;;;;;;11.40;8.50;;;;;;;21.53;29.09;101524.89;102916;1291;61969;-78
2024/02/03 03:41:43;;;;;;;10.30;8.60;;;;;;;21.52;29.03;101512.55;102744;1291;60633;-78
2024/02/03 03:44:09;;;;;;;12.10;9.00;;;;;;;21.53;28.95;101507.68;102746;1291;61705;-78
2024/02/03 03:46:34;;;;;;;12.90;8.80;;;;;;;21.53;29.08;101504.98;102858;1291;60713;-78
2024/02/03 03:49:00;;;;;;;10.90;9.00;;;;;;;21.54;29.06;101504.05;102765;1296;70520;-78
2024/02/03 03:51:26;;;;;;;11.40;9.10;;;;;;;21.54;29.19;101497.95;102758;1296;60631;-78
2024/02/03 03:53:51;;;;;;;12.10;8.50;;;;;;;21.54;29.07;101497.08;102822;1293;62338;-78
2024/02/03 03:56:17;;;;;;;10.50;9.10;;;;;;;21.55;29.16;101497.55;102757;1295;60993;-79
2024/02/03 03:58:42;;;;;;;12.00;9.00;;;;;;;21.54;29.11;101491.66;102846;1294;60570;-79
2024/02/03 04:01:09;;;;;;;10.90;8.90;;;;;;;21.56;28.98;101493.20;103283;1294;60545;-79
2024/02/03 04:03:35;;;;;;;12.80;9.50;;;;;;;21.55;29.02;101490.17;102861;1288;73775;-78
2024/02/03 04:06:00;;;;;;;11.60;9.20;;;;;;;21.56;29.12;101483.87;103221;1288;60543;-79
2024/02/03 04:08:26;;;;;;;11.30;8.90;;;;;;;21.56;29.13;101480.63;102992;1288;60620;-78
2024/02/03 04:10:52;;;;;;;11.20;9.60;;;;;;;21.56;29.12;101480.08;103080;1288;60498;-78
2024/02/03 04:13:17;;;;;;;13.90;9.80;;;;;;;21.56;29.16;101471.48;103152;1288;60608;-78
2024/02/03 04:15:43;;;;;;;11.50;8.90;;;;;;;21.57;29.16;101465.54;103179;1294;60592;-79
2024/02/03 04:18:09;;;;;;;12.50;9.20;;;;;;;21.57;29.17;101462.14;103105;1290;60598;-78
2024/02/03 04:20:35;;;;;;;11.90;9.20;;;;;;;21.57;28.95;101459.64;103092;1291;60522;-77
2024/02/03 04:23:01;;;;;;;10.90;8.90;;;;;;;21.57;28.99;101457.98;103093;1289;61853;-77
2024/02/03 04:25:27;;;;;;;13.00;9.30;;;;;;;21.58;29.07;101458.51;102887;1291;60671;-78
2024/02/03 04:27:52;;;;;;;11.40;9.10;;;;;;;21.58;29.11;101452.40;102921;1288;60600;-78
2024/02/03 04:30:20;;;;;;;11.20;9.10;;;;;;;21.58;28.92;101446.48;103183;1294;61231;-78
2024/02/03 04:32:45;;;;;;;12.10;9.10;;;;;;;21.58;28.96;101448.61;103117;1288;60666;-78
2024/02/03 04:35:11;;;;;;;10.70;8.60;;;;;;;21.59;28.95;101454.67;103161;1289;60552;-78
2024/02/03 04:37:37;;;;;;;10.70;8.60;;;;;;;21.59;28.98;101453.23;103267;1291;60502;-78
2024/02/03 04:40:05;;;;;;;13.00;8.50;;;;;;;21.59;29.05;101451.94;103110;1288;60571;-78
2024/02/03 04:42:31;;;;;;;12.90;8.60;;;;;;;21.60;28.96;101453.16;103021;1288;60577;-77
2024/02/03 04:44:57;;;;;;;12.70;8.10;;;;;;;21.60;28.91;101467.33;102844;1290;60667;-79
2024/02/03 04:47:23;;;;;;;10.60;8.70;;;;;;;21.60;29.06;101473.37;103095;1291;60652;-78
2024/02/03 04:49:48;;;;;;;10.90;8.50;;;;;;;21.60;28.90;101463.52;103070;1288;60594;-77
2024/02/03 04:52:14;;;;;;;10.40;8.50;;;;;;;21.60;28.96;101460.48;103274;1288;60524;-78
2024/02/03 04:54:40;;;;;;;13.50;9.00;;;;;;;21.61;28.86;101458.85;103164;1288;60656;-78
2024/02/03 04:57:05;;;;;;;12.50;9.30;;;;;;;21.61;28.97;101460.61;103056;1289;73452;-79
2024/02/03 04:59:31;;;;;;;12.60;9.50;;;;;;;21.61;28.89;101450.60;102891;1293;60571;-79
2024/02/03 05:01:57;;;;;;;11.70;8.60;;;;;;;21.62;28.81;101448.06;102920;1291;61126;-77
2024/02/03 05:04:22;;;;;;;11.30;8.90;;;;;;;21.62;28.90;101444.80;102856;1295;60688;-78
2024/02/03 05:06:48;;;;;;;10.60;8.40;;;;;;;21.62;28.94;101440.89;102895;1295;60890;-78
2024/02/03 05:09:14;;;;;;;13.20;8.80;;;;;;;21.63;28.81;101440.83;103158;1289;60594;-79
2024/02/03 05:11:41;;;;;;;11.30;8.60;;;;;;;21.62;28.88;101438.89;103229;1288;72774;-79
2024/02/03 05:14:06;;;;;;;13.50;8.60;;;;;;;21.62;28.76;101429.58;103046;1288;60695;-79
2024/02/03 05:16:32;;;;;;;11.60;8.90;;;;;;;21.63;28.93;101431.66;103194;1288;60579;-78
2024/02/03 05:18:58;;;;;;;10.40;8.50;;;;;;;21.63;28.88;101439.05;103082;1293;61550;-78
2024/02/03 05:21:23;;;;;;;12.70;8.70;;;;;;;21.62;28.80;101449.09;103081;1288;60951;-78
2024/02/03 05:23:49;;;;;;;12.00;9.00;;;;;;;21.63;28.84;101453.17;103088;1291;60581;-78
2024/02/03 05:26:15;;;;;;;10.80;8.30;;;;;;;21.63;28.89;101444.92;102920;1289;60656;-77
2024/02/03 05:28:41;;;;;;;11.80;8.70;;;;;;;21.63;28.76;101449.21;102985;1296;60661;-79
2024/02/03 05:31:06;;;;;;;12.40;8.90;;;;;;;21.64;28.77;101445.59;103226;1288;61364;-78
2024/02/03 05:33:32;;;;;;;11.40;8.10;;;;;;;21.64;28.79;101443.44;103134;1288;60632;-79
2024/02/03 05:35:57;;;;;;;11.70;9.00;;;;;;;21.64;28.70;101442.00;102896;1291;60631;-78
2024/02/03 05:38:23;;;;;;;12.30;8.90;;;;;;;21.64;28.71;101437.15;102816;1296;60782;-78
2024/02/03 05:40:50;;;;;;;12.30;9.60;;;;;;;21.64;28.77;101434.45;102784;1294;60586;-79
2024/02/03 05:43:15;;;;;;;11.60;8.70;;;;;;;21.64;28.70;101438.21;102839;1296;60654;-80
2024/02/03 05:45:41;;;;;;;11.20;8.10;;;;;;;21.65;28.72;101437.48;102671;1294;60667;-78
2024/02/03 05:48:07;;;;;;;12.20;9.10;;;;;;;21.65;28.80;101437.11;102876;1294;60758;-79
2024/02/03 05:50:33;;;;;;;13.60;10.00;;;;;;;21.66;28.81;101438.67;102721;1291;60964;-77
2024/02/03 05:52:59;;;;;;;10.50;8.30;;;;;;;21.66;28.71;101442.95;102697;1291;60459;-79
2024/02/03 05:55:26;;;;;;;11.60;9.10;;;;;;;21.66;28.74;101442.22;102866;1291;60759;-79
2024/02/03 05:57:52;;;;;;;11.70;8.90;;;;;;;21.66;28.83;101441.15;102875;1297;60581;-78
2024/02/03 06:00:19;;;;;;;12.20;9.10;;;;;;;21.66;28.73;101440.05;102936;1291;60593;-79
2024/02/03 06:02:45;;;;;;;13.10;9.20;;;;;;;21.66;28.82;101431.27;102834;1295;60701;-79
2024/02/03 06:05:12;;;;;;;12.90;9.50;;;;;;;21.67;28.68;101430.88;102700;1291;60759;-78
2024/02/03 06:07:37;;;;;;;12.10;9.30;;;;;;;21.67;28.83;101438.40;103051;1288;60566;-79
2024/02/03 06:10:04;;;;;;;12.90;9.30;;;;;;;21.67;28.61;101442.16;103252;1288;60566;-77
2024/02/03 06:12:29;;;;;;;13.00;9.40;;;;;;;21.68;28.70;101448.38;103198;1287;60573;-78
2024/02/03 06:14:55;;;;;;;13.70;9.90;;;;;;;21.67;28.69;101442.16;103155;1288;60589;-79
2024/02/03 06:17:21;;;;;;;12.90;9.40;;;;;;;21.67;28.66;101443.02;102913;1288;62160;-78
2024/02/03 06:19:47;;;;;;;13.60;9.10;;;;;;;21.68;28.63;101451.96;103209;1288;60499;-79
2024/02/03 06:22:13;;;;;;;13.20;9.30;;;;;;;21.68;28.73;101451.63;103147;1288;60578;-79
2024/02/03 06:24:39;;;;;;;11.80;9.20;;;;;;;21.68;28.79;101457.13;102919;1291;60723;-79
2024/02/03 06:27:05;;;;;;;14.50;9.50;;;;;;;21.68;28.59;101463.23;102865;1291;60614;-79
2024/02/03 06:29:31;;;;;;;13.00;9.40;;;;;;;21.68;28.71;101454.62;103257;1288;74587;-78
2024/02/03 06:31:57;;;;;;;11.10;9.00;;;;;;;21.69;28.71;101447.79;103104;1290;60584;-79
2024/02/03 06:34:23;;;;;;;13.90;9.00;;;;;;;21.69;28.83;101443.66;103004;1291;60576;-78
2024/02/03 06:36:49;;;;;;;12.80;9.60;;;;;;;21.69;28.72;101444.38;103122;1291;61242;-77
2024/02/03 06:39:14;;;;;;;12.10;9.40;;;;;;;21.69;28.63;101440.61;103190;1288;60922;-78
2024/02/03 06:41:40;;;;;;;11.90;8.70;;;;;;;21.69;28.59;101435.05;103093;1288;60595;-78
2024/02/03 06:44:09;;;;;;;12.60;9.30;;;;;;;21.69;28.61;101435.06;102991;1289;60731;-79
2024/02/03 06:46:35;;;;;;;11.40;9.10;;;;;;;21.69;28.57;101431.11;102998;1288;60568;-78
2024/02/03 06:49:00;;;;;;;13.30;9.00;;;;;;;21.69;28.65;101429.86;103043;1291;60687;-78
2024/02/03 06:51:26;;;;;;;11.20;8.70;;;;;;;21.69;28.59;101430.93;102881;1291;60637;-78
2024/02/03 06:53:52;;;;;;;13.90;8.70;;;;;;;21.69;28.56;101432.73;102988;1287;61636;-78
2024/02/03 06:56:17;;;;;;;11.20;8.70;;;;;;;21.68;28.52;101427.73;103212;1288;61380;-78
2024/02/03 06:58:43;;;;;;;12.80;9.30;;;;;;;21.69;28.67;101421.98;103074;1291;61398;-78
2024/02/03 07:01:08;;;;;;;12.20;8.90;;;;;;;21.69;28.46;101418.03;103124;1292;72197;-79
2024/02/03 07:03:34;;;;;;;11.50;8.80;;;;;;;21.70;28.58;101417.47;103224;1293;62570;-78
2024/02/03 07:06:00;;;;;;;11.80;8.90;;;;;;;21.69;28.73;101410.13;103084;1288;61367;-78
2024/02/03 07:08:25;;;;;;;12.30;9.10;;;;;;;21.69;28.60;101410.65;103141;1292;61368;-79
2024/02/03 07:10:51;;;;;;;11.90;9.10;;;;;;;21.70;28.43;101411.73;103201;1288;61280;-77
2024/02/03 07:13:17;;;;;;;11.60;9.10;;;;;;;21.70;28.47;101419.44;103098;1288;61354;-79
2024/02/03 07:15:43;;;;;;;11.60;8.70;;;;;;;21.69;28.60;101415.69;102923;1296;74359;-79
2024/02/03 07:18:09;;;;;;;11.40;8.10;;;;;;;21.70;28.66;101415.48;102924;1291;61306;-78
2024/02/03 07:20:35;;;;;;;11.10;8.50;;;;;;;21.70;28.45;101412.45;102909;1291;61846;-78
2024/02/03 07:23:00;;;;;;;12.30;8.10;;;;;;;21.70;28.55;101412.63;103064;1291;62347;-79
2024/02/03 07:25:26;;;;;;;12.90;9.30;;;;;;;21.70;28.48;101416.17;103080;1288;61384;-77
2024/02/03 07:27:52;;;;;;;11.50;8.40;;;;;;;21.70;28.44;101414.53;103204;1292;61348;-78
2024/02/03 07:30:17;;;;;;;10.60;8.00;;;;;;;21.70;28.42;101412.05;102933;1293;61335;-80
2024/02/03 07:32:43;;;;;;;11.20;8.50;;;;;;;21.71;28.50;101405.73;103158;1288;62583;-79
2024/02/03 07:35:10;;;;;;;11.50;8.60;;;;;;;21.71;28.53;101394.97;102769;1296;61963;-78
2024/02/03 07:37:36;;;;;;;11.10;8.70;;;;;;;21.71;28.58;101397.31;102656;1294;61425;-79
2024/02/03 07:40:02;;;;;;;10.00;8.20;;;;;;;21.71;28.49;101396.42;102850;1294;61399;-79
2024/02/03 07:42:27;;;;;;;10.70;8.00;;;;;;;21.71;28.46;101396.73;102830;1293;61470;-78
2024/02/03 07:44:53;;;;;;;10.90;8.40;;;;;;;21.72;28.46;101382.39;102738;1293;62870;-78
2024/02/03 07:47:19;;;;;;;12.30;8.60;;;;;;;21.72;28.45;101381.32;102742;1297;62004;-79
2024/02/03 07:49:44;;;;;;;10.90;8.40;;;;;;;21.72;28.51;101376.46;102828;1296;62632;-77
2024/02/03 07:52:10;;;;;;;10.60;8.00;;;;;;;21.72;28.54;101384.84;102468;1292;61547;-78
2024/02/03 07:54:36;;;;;;;10.10;7.90;;;;;;;21.73;28.55;101385.52;102854;1294;62082;-77
2024/02/03 07:57:01;;;;;;;10.80;8.20;;;;;;;21.73;28.54;101390.89;102750;1294;61466;-78
2024/02/03 07:59:27;;;;;;;11.40;8.20;;;;;;;21.73;28.46;101384.59;102838;1296;61585;-79
2024/02/03 08:01:53;;;;;;;11.10;8.20;;;;;;;21.74;28.50;101381.52;102782;1294;61521;-79
2024/02/03 08:04:19;;;;;;;10.70;7.70;;;;;;;21.74;28.62;101370.58;102713;1293;61449;-78
2024/02/03 08:06:45;;;;;;;10.90;8.10;;;;;;;21.74;28.52;101363.09;102867;1291;61306;-78
2024/02/03 08:09:10;;;;;;;11.50;8.70;;;;;;;21.73;28.42;101355.27;102957;1291;62077;-77
2024/02/03 08:11:36;;;;;;;12.00;8.20;;;;;;;21.72;28.55;101354.27;103073;1291;61454;-78
2024/02/03 08:14:02;;;;;;;11.30;8.20;;;;;;;21.70;28.39;101359.55;103178;1291;61392;-79
2024/02/03 08:16:28;;;;;;;9.80;7.70;;;;;;;21.68;28.50;101359.13;102932;1296;66844;-78
2024/02/03 08:18:54;;;;;;;10.70;8.00;;;;;;;21.67;28.58;101365.00;102856;1291;61761;-78
2024/02/03 08:21:19;;;;;;;10.90;8.00;;;;;;;21.65;28.52;101369.41;102830;1293;61366;-79
2024/02/03 08:23:45;;;;;;;10.10;7.70;;;;;;;21.62;28.61;101368.84;103173;1291;61393;-78
2024/02/03 08:26:12;;;;;;;11.10;7.70;;;;;;;21.61;28.60;101375.75;103221;1291;61326;-78
2024/02/03 08:28:37;;;;;;;9.90;7.80;;;;;;;21.58;28.41;101371.42;102908;1291;62562;-78
2024/02/03 08:31:03;;;;;;;12.00;7.80;;;;;;;21.56;28.66;101370.31;102871;1291;61392;-77
2024/02/03 08:33:31;;;;;;;11.10;7.90;;;;;;;21.54;28.54;101372.40;102887;1294;61485;-78
2024/02/03 08:35:57;;;;;;;10.60;7.60;;;;;;;21.52;28.58;101373.25;103058;1291;73762;-78
2024/02/03 08:38:22;;;;;;;11.00;8.00;;;;;;;21.50;28.56;101370.51;102890;1292;61312;-79
2024/02/03 08:40:49;;;;;;;9.40;7.50;;;;;;;21.48;28.69;101367.04;102916;1291;61422;-79
2024/02/03 08:43:15;;;;;;;11.80;8.10;;;;;;;21.46;28.59;101368.60;102900;1296;61406;-78
2024/02/03 08:45:42;;;;;;;10.20;7.30;;;;;;;21.45;28.67;101365.42;102814;1293;61398;-79
2024/02/03 08:48:08;;;;;;;10.00;7.50;;;;;;;21.43;28.63;101364.13;102901;1291;62458;-78
2024/02/03 08:50:33;;;;;;;9.90;7.50;;;;;;;21.41;28.60;101365.46;103330;1291;61389;-78
2024/02/03 08:52:59;;;;;;;9.70;7.10;;;;;;;21.40;28.72;101363.05;103350;1290;61859;-78
2024/02/03 08:55:25;;;;;;;10.90;7.40;;;;;;;21.38;28.75;101364.42;103215;1291;61168;-78
2024/02/03 08:57:51;;;;;;;11.10;7.30;;;;;;;21.38;28.77;101357.13;103088;1291;61389;-77
2024/02/03 09:00:17;;;;;;;11.90;7.90;;;;;;;21.37;28.73;101355.06;103044;1291;61378;-78
2024/02/03 09:02:42;;;;;;;9.90;7.20;;;;;;;21.35;28.66;101353.86;103224;1293;61411;-78
2024/02/03 09:05:08;;;;;;;9.80;7.30;;;;;;;21.34;28.82;101355.05;102903;1295;61492;-79
2024/02/03 09:07:36;;;;;;;9.60;7.50;;;;;;;21.33;28.89;101358.69;103327;1291;61837;-79
2024/02/03 09:10:03;;;;;;;9.10;6.70;;;;;;;21.31;28.64;101352.52;103556;1291;61411;-78
2024/02/03 09:12:29;;;;;;;9.20;7.20;;;;;;;21.31;28.67;101346.31;103134;1291;61891;-78
2024/02/03 09:14:55;;;;;;;10.10;7.30;;;;;;;21.30;28.71;101344.23;102874;1293;61444;-77
2024/02/03 09:17:21;;;;;;;10.20;7.30;;;;;;;21.28;28.80;101339.47;103005;1290;61283;-79
2024/02/03 09:19:47;;;;;;;11.10;7.30;;;;;;;21.27;28.70;101332.38;102951;1291;62634;-78
2024/02/03 09:22:14;;;;;;;11.00;7.60;;;;;;;21.26;28.73;101327.63;103051;1291;61295;-79
2024/02/03 09:24:40;;;;;;;9.60;6.80;;;;;;;21.25;28.91;101322.14;102949;1291;61963;-78
2024/02/03 09:27:06;;;;;;;8.70;6.50;;;;;;;21.24;28.70;101323.06;102851;1291;61494;-79
2024/02/03 09:29:31;;;;;;;10.80;7.10;;;;;;;21.24;28.74;101321.66;103130;1292;61447;-78
2024/02/03 09:31:57;;;;;;;10.30;6.90;;;;;;;21.22;28.89;101316.20;103209;1293;61383;-77
2024/02/03 09:34:23;;;;;;;9.80;7.40;;;;;;;21.21;28.78;101312.88;103265;1293;61276;-78
2024/02/03 09:36:49;;;;;;;8.90;6.70;;;;;;;21.20;28.85;101310.80;102922;1290;61365;-77
2024/02/03 09:39:15;;;;;;;9.60;7.10;;;;;;;21.20;28.90;101312.96;102838;1293;61399;-78
2024/02/03 09:41:40;;;;;;;8.30;6.70;;;;;;;21.19;28.93;101312.80;103183;1291;62675;-79
2024/02/03 09:44:06;;;;;;;10.20;6.80;;;;;;;21.18;28.82;101302.86;102913;1291;61464;-79
2024/02/03 09:46:32;;;;;;;10.30;6.90;;;;;;;21.18;28.80;101291.79;103435;1289;61388;-79
2024/02/03 09:48:58;;;;;;;10.30;7.20;;;;;;;21.18;28.78;101289.10;103067;1293;73424;-79
2024/02/03 09:51:24;;;;;;;9.70;6.90;;;;;;;21.17;28.91;101283.98;102849;1294;61336;-77
2024/02/03 09:53:50;;;;;;;9.30;7.00;;;;;;;21.17;28.89;101279.33;102917;1293;62217;-78
2024/02/03 09:56:15;;;;;;;11.60;7.30;;;;;;;21.16;28.88;101277.39;102996;1293;61881;-78
2024/02/03 09:58:41;;;;;;;11.10;7.20;;;;;;;21.16;28.72;101273.65;102791;1291;61471;-78
2024/02/03 10:01:07;;;;;;;8.50;6.70;;;;;;;21.15;28.84;101263.16;102989;1291;62655;-80
2024/02/03 10:03:33;;;;;;;8.80;6.70;;;;;;;21.15;28.82;101260.29;103442;1293;61456;-79
2024/02/03 10:06:00;;;;;;;10.20;6.90;;;;;;;21.15;28.96;101254.21;103251;1294;61281;-78
2024/02/03 10:08:26;;;;;;;9.40;6.40;;;;;;;21.15;28.82;101251.19;103333;1293;61375;-77
2024/02/03 10:10:55;;;;;;;9.10;6.70;;;;;;;21.14;29.02;101253.54;103532;1293;62926;-78
2024/02/03 10:13:22;;;;;;;;;;;;;;;21.15;28.90;101252.96;103059;1293;74427;-79
2024/02/03 10:15:58;;;;;;;10.00;6.50;;;;;;;21.13;28.87;101243.45;102962;1290;61446;-78
2024/02/03 10:18:23;;;;;;;9.40;6.40;;;;;;;21.13;28.85;101234.27;103044;1292;62555;-79
2024/02/03 10:20:49;;;;;;;9.40;7.10;;;;;;;21.13;28.89;101229.80;103324;1293;61387;-77
2024/02/03 10:23:15;;;;;;;9.50;6.50;;;;;;;21.13;29.01;101224.98;103295;1293;61380;-77
2024/02/03 10:25:41;;;;;;;9.00;6.50;;;;;;;21.13;29.00;101223.74;103519;1289;61286;-79
2024/02/03 10:28:07;;;;;;;9.90;6.60;;;;;;;21.13;29.01;101227.30;103301;1293;62519;-79
2024/02/03 10:30:34;;;;;;;9.50;6.30;;;;;;;21.13;28.90;101230.16;103225;1291;61364;-78
2024/02/03 10:33:09;;;;;;;8.20;6.70;;;;;;;21.13;28.88;101225.17;102902;1291;61465;-77
2024/02/03 10:35:36;;;;;;;10.00;6.10;;;;;;;21.13;28.95;101221.41;103044;1293;61469;-78
2024/02/03 10:38:01;;;;;;;8.40;6.10;;;;;;;21.13;28.88;101218.35;103123;1289;61266;-79
2024/02/03 10:40:31;;;;;;;10.20;6.10;;;;;;;21.13;28.95;101211.04;102870;1291;61770;-78
2024/02/03 10:42:58;;;;;;;8.80;6.30;;;;;;;21.12;28.88;101206.61;102756;1291;73185;-78
2024/02/03 10:45:28;;;;;;;8.20;6.30;;;;;;;21.13;28.92;101204.61;102790;1295;61913;-77
2024/02/03 10:47:54;;;;;;;8.50;6.30;;;;;;;21.12;28.87;101202.85;102986;1291;62271;-78
2024/02/03 10:50:32;;;;;;;8.50;6.00;;;;;;;21.12;28.76;101203.38;102881;1291;72610;-79
2024/02/03 10:52:59;;;;;;;8.90;6.50;;;;;;;21.11;28.96;101203.62;102914;1291;75494;-78
2024/02/03 10:55:25;;;;;;;9.30;6.30;;;;;;;21.11;29.00;101197.54;102820;1297;62673;-78
2024/02/03 10:57:51;;;;;;;8.00;5.70;;;;;;;21.11;29.05;101193.26;102618;1297;61429;-78
2024/02/03 11:00:18;;;;;;;8.40;6.10;;;;;;;21.11;29.05;101187.19;102619;1299;61453;-78
2024/02/03 11:02:53;;;;;;;8.70;6.50;;;;;;;21.10;28.89;101178.80;102434;1294;61830;-79
2024/02/03 11:05:23;;;;;;;9.00;6.00;;;;;;;21.11;29.04;101172.86;102704;1294;61401;-79
2024/02/03 11:07:49;;;;;;;8.60;6.10;;;;;;;21.10;28.99;101165.02;102771;1299;61339;-79